createdAt,value
2022-08-21T00:00:53.000Z,52.45
2022-08-21T00:01:53.000Z,52.37
2022-08-21T00:03:02.000Z,53.16
2022-08-21T00:03:54.000Z,52.84
2022-08-21T00:04:53.000Z,52.40
2022-08-21T00:05:52.000Z,52.42
2022-08-21T00:06:52.000Z,52.68
2022-08-21T00:07:53.000Z,52.35
2022-08-21T00:08:52.000Z,52.61
2022-08-21T00:09:53.000Z,52.81
2022-08-21T00:10:52.000Z,53.57
2022-08-21T00:11:52.000Z,53.46
2022-08-21T00:12:53.000Z,53.16
2022-08-21T00:13:53.000Z,53.19
2022-08-21T00:14:53.000Z,53.46
2022-08-21T00:15:52.000Z,53.27
2022-08-21T00:16:53.000Z,53.48
2022-08-21T00:17:54.000Z,53.37
2022-08-21T00:18:53.000Z,53.35
2022-08-21T00:19:52.000Z,53.44
2022-08-21T00:20:53.000Z,53.72
2022-08-21T00:21:54.000Z,53.76
2022-08-21T00:22:53.000Z,53.72
2022-08-21T00:23:53.000Z,54.01
2022-08-21T00:24:53.000Z,54.28
2022-08-21T00:25:52.000Z,53.88
2022-08-21T00:26:53.000Z,53.83
2022-08-21T00:27:53.000Z,54.15
2022-08-21T00:28:53.000Z,54.27
2022-08-21T00:29:53.000Z,54.34
2022-08-21T00:30:53.000Z,53.69
2022-08-21T00:31:53.000Z,53.55
2022-08-21T00:32:55.000Z,53.77
2022-08-21T00:33:52.000Z,53.60
2022-08-21T00:34:53.000Z,53.98
2022-08-21T00:35:53.000Z,54.07
2022-08-21T00:36:53.000Z,53.85
2022-08-21T00:37:53.000Z,53.53
2022-08-21T00:38:53.000Z,53.70
2022-08-21T00:39:53.000Z,53.66
2022-08-21T00:40:58.000Z,53.73
2022-08-21T00:41:53.000Z,53.84
2022-08-21T00:42:53.000Z,53.75
2022-08-21T00:43:53.000Z,53.40
2022-08-21T00:44:53.000Z,53.51
2022-08-21T00:45:54.000Z,53.40
2022-08-21T00:46:53.000Z,53.62
2022-08-21T00:47:55.000Z,53.41
2022-08-21T00:48:53.000Z,53.21
2022-08-21T00:49:53.000Z,53.15
2022-08-21T00:51:03.000Z,53.86
2022-08-21T00:51:56.000Z,53.70
2022-08-21T00:52:53.000Z,53.83
2022-08-21T00:53:57.000Z,53.51
2022-08-21T00:54:54.000Z,53.81
2022-08-21T00:55:55.000Z,53.57
2022-08-21T00:56:58.000Z,53.63
2022-08-21T00:57:55.000Z,54.08
2022-08-21T00:58:55.000Z,53.68
2022-08-21T00:59:56.000Z,53.92
2022-08-21T01:00:53.000Z,54.16
2022-08-21T01:01:53.000Z,53.78
2022-08-21T01:02:53.000Z,53.72
2022-08-21T01:03:53.000Z,54.11
2022-08-21T01:04:53.000Z,54.28
2022-08-21T01:05:53.000Z,54.49
2022-08-21T01:06:54.000Z,54.29
2022-08-21T01:07:55.000Z,54.27
2022-08-21T01:08:53.000Z,54.17
2022-08-21T01:09:53.000Z,54.48
2022-08-21T01:10:53.000Z,54.65
2022-08-21T01:11:53.000Z,54.45
2022-08-21T01:12:56.000Z,54.32
2022-08-21T01:13:54.000Z,54.76
2022-08-21T01:14:53.000Z,54.65
2022-08-21T01:15:56.000Z,55.41
2022-08-21T01:16:55.000Z,55.42
2022-08-21T01:17:53.000Z,55.37
2022-08-21T01:18:53.000Z,55.46
2022-08-21T01:19:57.000Z,55.48
2022-08-21T01:21:03.000Z,55.39
2022-08-21T01:21:53.000Z,55.99
2022-08-21T01:22:53.000Z,55.66
2022-08-21T01:23:54.000Z,56.01
2022-08-21T01:24:53.000Z,56.54
2022-08-21T01:25:53.000Z,56.25
2022-08-21T01:26:53.000Z,55.90
2022-08-21T01:27:53.000Z,55.68
2022-08-21T01:29:00.000Z,55.63
2022-08-21T01:29:57.000Z,56.25
2022-08-21T01:30:53.000Z,55.56
2022-08-21T01:31:53.000Z,55.41
2022-08-21T01:32:54.000Z,55.90
2022-08-21T01:33:55.000Z,56.07
2022-08-21T01:34:53.000Z,56.59
2022-08-21T01:35:53.000Z,55.78
2022-08-21T01:36:53.000Z,55.90
2022-08-21T01:37:52.000Z,55.90
2022-08-21T01:38:53.000Z,56.69
2022-08-21T01:39:53.000Z,56.00
2022-08-21T01:40:52.000Z,56.17
2022-08-21T01:41:52.000Z,56.95
2022-08-21T01:42:53.000Z,57.03
2022-08-21T01:43:53.000Z,57.09
2022-08-21T01:44:52.000Z,56.95
2022-08-21T01:45:52.000Z,57.78
2022-08-21T01:46:53.000Z,57.43
2022-08-21T01:47:52.000Z,57.59
2022-08-21T01:48:52.000Z,57.30
2022-08-21T01:49:53.000Z,57.74
2022-08-21T01:50:52.000Z,57.71
2022-08-21T01:51:53.000Z,57.31
2022-08-21T01:52:52.000Z,57.52
2022-08-21T01:53:52.000Z,57.78
2022-08-21T01:54:52.000Z,57.78
2022-08-21T01:55:52.000Z,57.84
2022-08-21T01:56:53.000Z,57.71
2022-08-21T01:57:53.000Z,57.80
2022-08-21T01:58:52.000Z,57.43
2022-08-21T01:59:53.000Z,57.97
2022-08-21T02:00:53.000Z,57.91
2022-08-21T02:01:55.000Z,57.62
2022-08-21T02:02:53.000Z,58.44
2022-08-21T02:03:52.000Z,58.15
2022-08-21T02:04:53.000Z,58.25
2022-08-21T02:05:53.000Z,58.25
2022-08-21T02:06:52.000Z,57.96
2022-08-21T02:07:55.000Z,58.34
2022-08-21T02:08:52.000Z,58.30
2022-08-21T02:09:52.000Z,58.25
2022-08-21T02:10:52.000Z,58.23
2022-08-21T02:11:53.000Z,58.06
2022-08-21T02:12:53.000Z,58.13
2022-08-21T02:13:52.000Z,58.62
2022-08-21T02:14:52.000Z,58.49
2022-08-21T02:15:52.000Z,58.54
2022-08-21T02:16:52.000Z,58.57
2022-08-21T02:17:55.000Z,58.21
2022-08-21T02:18:52.000Z,58.75
2022-08-21T02:19:52.000Z,58.70
2022-08-21T02:20:52.000Z,58.96
2022-08-21T02:21:52.000Z,58.88
2022-08-21T02:22:53.000Z,59.14
2022-08-21T02:23:52.000Z,59.07
2022-08-21T02:24:52.000Z,58.95
2022-08-21T02:26:00.000Z,58.81
2022-08-21T02:26:52.000Z,58.41
2022-08-21T02:27:53.000Z,59.11
2022-08-21T02:28:52.000Z,58.96
2022-08-21T02:29:55.000Z,58.66
2022-08-21T02:30:54.000Z,58.87
2022-08-21T02:31:52.000Z,59.10
2022-08-21T02:32:52.000Z,59.05
2022-08-21T02:33:52.000Z,58.98
2022-08-21T02:34:53.000Z,58.74
2022-08-21T02:35:54.000Z,58.80
2022-08-21T02:36:52.000Z,58.56
2022-08-21T02:37:58.000Z,58.70
2022-08-21T02:38:53.000Z,58.81
2022-08-21T02:39:53.000Z,59.19
2022-08-21T02:40:54.000Z,59.37
2022-08-21T02:41:53.000Z,59.15
2022-08-21T02:42:53.000Z,58.89
2022-08-21T02:43:53.000Z,58.48
2022-08-21T02:44:53.000Z,58.67
2022-08-21T02:45:54.000Z,58.53
2022-08-21T02:46:53.000Z,59.19
2022-08-21T02:48:02.000Z,59.72
2022-08-21T02:48:53.000Z,59.45
2022-08-21T02:49:53.000Z,59.33
2022-08-21T02:50:59.000Z,59.20
2022-08-21T02:51:53.000Z,58.79
2022-08-21T02:52:54.000Z,58.91
2022-08-21T02:53:53.000Z,59.57
2022-08-21T02:54:53.000Z,58.91
2022-08-21T02:55:53.000Z,59.16
2022-08-21T02:56:53.000Z,59.16
2022-08-21T02:57:55.000Z,58.65
2022-08-21T02:58:53.000Z,59.13
2022-08-21T02:59:53.000Z,59.27
2022-08-21T03:00:53.000Z,59.24
2022-08-21T03:01:53.000Z,59.49
2022-08-21T03:02:53.000Z,59.16
2022-08-21T03:03:53.000Z,59.19
2022-08-21T03:04:53.000Z,59.29
2022-08-21T03:05:53.000Z,59.11
2022-08-21T03:06:53.000Z,59.56
2022-08-21T03:07:53.000Z,59.40
2022-08-21T03:08:53.000Z,58.84
2022-08-21T03:09:53.000Z,59.00
2022-08-21T03:10:53.000Z,59.00
2022-08-21T03:11:53.000Z,58.81
2022-08-21T03:12:54.000Z,59.27
2022-08-21T03:13:53.000Z,59.40
2022-08-21T03:14:53.000Z,59.25
2022-08-21T03:15:53.000Z,59.50
2022-08-21T03:16:52.000Z,59.64
2022-08-21T03:17:54.000Z,59.33
2022-08-21T03:18:52.000Z,59.39
2022-08-21T03:19:52.000Z,59.46
2022-08-21T03:20:53.000Z,59.68
2022-08-21T03:21:52.000Z,59.77
2022-08-21T03:22:54.000Z,59.83
2022-08-21T03:23:53.000Z,59.92
2022-08-21T03:24:53.000Z,59.91
2022-08-21T03:25:53.000Z,60.14
2022-08-21T03:26:52.000Z,59.76
2022-08-21T03:27:53.000Z,60.27
2022-08-21T03:28:53.000Z,60.80
2022-08-21T03:29:54.000Z,60.79
2022-08-21T03:30:53.000Z,60.54
2022-08-21T03:31:55.000Z,59.98
2022-08-21T03:32:53.000Z,60.20
2022-08-21T03:33:54.000Z,60.07
2022-08-21T03:34:52.000Z,60.14
2022-08-21T03:35:58.000Z,60.45
2022-08-21T03:36:52.000Z,60.27
2022-08-21T03:37:54.000Z,60.63
2022-08-21T03:38:53.000Z,59.96
2022-08-21T03:39:53.000Z,60.52
2022-08-21T03:40:52.000Z,60.72
2022-08-21T03:41:53.000Z,60.73
2022-08-21T03:42:52.000Z,60.60
2022-08-21T03:43:53.000Z,60.69
2022-08-21T03:44:52.000Z,60.79
2022-08-21T03:45:53.000Z,61.21
2022-08-21T03:46:53.000Z,60.95
2022-08-21T03:47:58.000Z,61.21
2022-08-21T03:48:52.000Z,60.97
2022-08-21T03:49:53.000Z,61.26
2022-08-21T03:50:52.000Z,61.22
2022-08-21T03:51:53.000Z,61.12
2022-08-21T03:52:53.000Z,61.25
2022-08-21T03:53:54.000Z,61.15
2022-08-21T03:54:52.000Z,61.06
2022-08-21T03:55:53.000Z,61.03
2022-08-21T03:56:52.000Z,60.89
2022-08-21T03:57:52.000Z,61.25
2022-08-21T03:58:52.000Z,61.02
2022-08-21T03:59:53.000Z,61.04
2022-08-21T04:00:58.000Z,60.96
2022-08-21T04:01:54.000Z,61.53
2022-08-21T04:02:52.000Z,61.40
2022-08-21T04:03:52.000Z,61.36
2022-08-21T04:04:52.000Z,61.62
2022-08-21T04:05:52.000Z,61.48
2022-08-21T04:06:54.000Z,61.13
2022-08-21T04:07:54.000Z,61.74
2022-08-21T04:08:52.000Z,61.51
2022-08-21T04:09:52.000Z,61.73
2022-08-21T04:10:56.000Z,61.26
2022-08-21T04:11:53.000Z,61.26
2022-08-21T04:12:53.000Z,61.49
2022-08-21T04:13:53.000Z,61.46
2022-08-21T04:14:53.000Z,62.31
2022-08-21T04:15:54.000Z,62.60
2022-08-21T04:16:53.000Z,62.37
2022-08-21T04:17:53.000Z,62.09
2022-08-21T04:18:53.000Z,62.10
2022-08-21T04:19:52.000Z,61.59
2022-08-21T04:20:55.000Z,61.81
2022-08-21T04:21:53.000Z,62.22
2022-08-21T04:22:53.000Z,62.26
2022-08-21T04:23:56.000Z,62.38
2022-08-21T04:24:53.000Z,61.72
2022-08-21T04:25:55.000Z,62.11
2022-08-21T04:26:53.000Z,61.74
2022-08-21T04:27:53.000Z,61.75
2022-08-21T04:28:53.000Z,62.02
2022-08-21T04:29:52.000Z,62.64
2022-08-21T04:30:53.000Z,62.06
2022-08-21T04:31:53.000Z,61.98
2022-08-21T04:32:53.000Z,62.03
2022-08-21T04:33:53.000Z,61.93
2022-08-21T04:35:03.000Z,61.87
2022-08-21T04:35:53.000Z,62.53
2022-08-21T04:36:52.000Z,62.40
2022-08-21T04:37:53.000Z,62.37
2022-08-21T04:38:53.000Z,62.77
2022-08-21T04:39:53.000Z,62.49
2022-08-21T04:40:52.000Z,62.54
2022-08-21T04:41:52.000Z,62.86
2022-08-21T04:42:56.000Z,62.86
2022-08-21T04:43:54.000Z,63.07
2022-08-21T04:44:54.000Z,63.87
2022-08-21T04:45:52.000Z,63.64
2022-08-21T04:46:52.000Z,62.87
2022-08-21T04:47:55.000Z,62.97
2022-08-21T04:48:52.000Z,62.82
2022-08-21T04:49:52.000Z,63.28
2022-08-21T04:50:58.000Z,63.67
2022-08-21T04:51:52.000Z,63.18
2022-08-21T04:52:53.000Z,63.20
2022-08-21T04:53:59.000Z,63.07
2022-08-21T04:54:52.000Z,63.55
2022-08-21T04:55:54.000Z,63.21
2022-08-21T04:57:00.000Z,63.02
2022-08-21T04:57:54.000Z,62.98
2022-08-21T04:58:55.000Z,63.29
2022-08-21T04:59:52.000Z,63.97
2022-08-21T05:00:56.000Z,63.87
2022-08-21T05:01:54.000Z,63.58
2022-08-21T05:02:58.000Z,64.39
2022-08-21T05:03:56.000Z,63.88
2022-08-21T05:04:54.000Z,64.56
2022-08-21T05:05:53.000Z,64.83
2022-08-21T05:06:56.000Z,63.55
2022-08-21T05:07:52.000Z,63.33
2022-08-21T05:08:55.000Z,63.43
2022-08-21T05:09:53.000Z,63.72
2022-08-21T05:10:54.000Z,64.02
2022-08-21T05:11:53.000Z,64.47
2022-08-21T05:12:54.000Z,64.77
2022-08-21T05:13:53.000Z,64.59
2022-08-21T05:14:53.000Z,64.09
2022-08-21T05:15:53.000Z,64.19
2022-08-21T05:16:53.000Z,64.21
2022-08-21T05:17:53.000Z,64.36
2022-08-21T05:18:53.000Z,63.96
2022-08-21T05:19:53.000Z,64.03
2022-08-21T05:20:53.000Z,63.78
2022-08-21T05:21:53.000Z,64.22
2022-08-21T05:22:53.000Z,64.27
2022-08-21T05:23:53.000Z,63.85
2022-08-21T05:24:53.000Z,63.35
2022-08-21T05:25:53.000Z,63.15
2022-08-21T05:26:53.000Z,63.79
2022-08-21T05:27:53.000Z,63.82
2022-08-21T05:28:53.000Z,64.13
2022-08-21T05:29:53.000Z,63.35
2022-08-21T05:30:53.000Z,63.61
2022-08-21T05:31:53.000Z,63.21
2022-08-21T05:32:57.000Z,63.02
2022-08-21T05:33:53.000Z,63.12
2022-08-21T05:34:54.000Z,62.80
2022-08-21T05:35:54.000Z,62.82
2022-08-21T05:36:53.000Z,62.86
2022-08-21T05:37:53.000Z,62.74
2022-08-21T05:38:53.000Z,63.54
2022-08-21T05:39:53.000Z,62.90
2022-08-21T05:40:54.000Z,63.23
2022-08-21T05:41:53.000Z,63.49
2022-08-21T05:42:54.000Z,63.34
2022-08-21T05:43:53.000Z,63.34
2022-08-21T05:44:53.000Z,63.13
2022-08-21T05:45:53.000Z,62.87
2022-08-21T05:46:53.000Z,62.81
2022-08-21T05:47:53.000Z,62.61
2022-08-21T05:48:53.000Z,62.84
2022-08-21T05:49:53.000Z,63.17
2022-08-21T05:50:53.000Z,63.88
2022-08-21T05:51:52.000Z,63.54
2022-08-21T05:52:53.000Z,63.72
2022-08-21T05:53:53.000Z,63.73
2022-08-21T05:54:55.000Z,63.89
2022-08-21T05:55:53.000Z,63.92
2022-08-21T05:56:53.000Z,63.83
2022-08-21T05:57:52.000Z,64.22
2022-08-21T05:58:53.000Z,63.68
2022-08-21T05:59:53.000Z,63.51
2022-08-21T06:00:53.000Z,63.28
2022-08-21T06:01:53.000Z,63.84
2022-08-21T06:02:53.000Z,63.48
2022-08-21T06:03:52.000Z,63.26
2022-08-21T06:04:56.000Z,63.76
2022-08-21T06:05:54.000Z,63.88
2022-08-21T06:06:53.000Z,63.61
2022-08-21T06:07:53.000Z,63.70
2022-08-21T06:08:53.000Z,63.72
2022-08-21T06:09:53.000Z,64.13
2022-08-21T06:10:54.000Z,63.39
2022-08-21T06:11:52.000Z,64.08
2022-08-21T06:12:53.000Z,64.25
2022-08-21T06:13:52.000Z,65.19
2022-08-21T06:14:52.000Z,64.71
2022-08-21T06:16:02.000Z,64.66
2022-08-21T06:16:52.000Z,64.36
2022-08-21T06:17:53.000Z,64.54
2022-08-21T06:18:52.000Z,64.90
2022-08-21T06:19:52.000Z,64.52
2022-08-21T06:20:52.000Z,64.59
2022-08-21T06:21:52.000Z,64.17
2022-08-21T06:22:52.000Z,64.58
2022-08-21T06:23:52.000Z,64.21
2022-08-21T06:24:52.000Z,64.58
2022-08-21T06:25:52.000Z,64.41
2022-08-21T06:26:52.000Z,64.63
2022-08-21T06:27:52.000Z,64.30
2022-08-21T06:28:53.000Z,63.82
2022-08-21T06:29:52.000Z,64.10
2022-08-21T06:30:52.000Z,64.18
2022-08-21T06:31:52.000Z,64.70
2022-08-21T06:32:52.000Z,64.72
2022-08-21T06:33:52.000Z,64.19
2022-08-21T06:34:52.000Z,64.87
2022-08-21T06:35:52.000Z,64.64
2022-08-21T06:36:52.000Z,64.37
2022-08-21T06:37:52.000Z,64.47
2022-08-21T06:38:52.000Z,64.15
2022-08-21T06:39:52.000Z,64.54
2022-08-21T06:40:52.000Z,65.83
2022-08-21T06:41:52.000Z,65.93
2022-08-21T06:42:53.000Z,66.05
2022-08-21T06:43:54.000Z,65.34
2022-08-21T06:44:53.000Z,65.07
2022-08-21T06:45:53.000Z,64.85
2022-08-21T06:46:53.000Z,65.19
2022-08-21T06:47:53.000Z,64.99
2022-08-21T06:48:53.000Z,65.06
2022-08-21T06:49:53.000Z,64.72
2022-08-21T06:50:53.000Z,64.75
2022-08-21T06:51:53.000Z,64.09
2022-08-21T06:53:03.000Z,64.78
2022-08-21T06:53:53.000Z,65.15
2022-08-21T06:54:53.000Z,64.78
2022-08-21T06:55:53.000Z,65.04
2022-08-21T06:56:53.000Z,64.52
2022-08-21T06:57:53.000Z,64.48
2022-08-21T06:58:53.000Z,63.92
2022-08-21T06:59:53.000Z,64.19
2022-08-21T07:00:53.000Z,63.95
2022-08-21T07:01:53.000Z,64.25
2022-08-21T07:02:53.000Z,63.94
2022-08-21T07:03:53.000Z,63.92
2022-08-21T07:04:53.000Z,63.69
2022-08-21T07:05:53.000Z,63.82
2022-08-21T07:06:53.000Z,63.82
2022-08-21T07:07:53.000Z,63.82
2022-08-21T07:08:53.000Z,63.78
2022-08-21T07:09:53.000Z,63.53
2022-08-21T07:10:56.000Z,63.23
2022-08-21T07:11:55.000Z,62.97
2022-08-21T07:12:54.000Z,62.69
2022-08-21T07:13:54.000Z,63.03
2022-08-21T07:14:52.000Z,62.07
2022-08-21T07:15:52.000Z,62.24
2022-08-21T07:16:52.000Z,61.41
2022-08-21T07:17:52.000Z,61.54
2022-08-21T07:18:52.000Z,61.97
2022-08-21T07:19:52.000Z,62.00
2022-08-21T07:20:54.000Z,61.95
2022-08-21T07:21:59.000Z,61.12
2022-08-21T07:22:53.000Z,61.59
2022-08-21T07:23:53.000Z,61.59
2022-08-21T07:24:54.000Z,61.41
2022-08-21T07:25:53.000Z,61.19
2022-08-21T07:26:52.000Z,60.97
2022-08-21T07:27:53.000Z,60.94
2022-08-21T07:28:53.000Z,60.88
2022-08-21T07:29:52.000Z,60.57
2022-08-21T07:30:55.000Z,60.33
2022-08-21T07:31:52.000Z,60.11
2022-08-21T07:32:53.000Z,60.04
2022-08-21T07:33:53.000Z,59.79
2022-08-21T07:34:52.000Z,59.45
2022-08-21T07:35:53.000Z,59.29
2022-08-21T07:36:52.000Z,59.76
2022-08-21T07:37:52.000Z,59.49
2022-08-21T07:38:52.000Z,58.99
2022-08-21T07:39:52.000Z,59.41
2022-08-21T07:40:55.000Z,58.80
2022-08-21T07:41:52.000Z,58.78
2022-08-21T07:42:53.000Z,58.64
2022-08-21T07:43:52.000Z,58.46
2022-08-21T07:44:54.000Z,58.39
2022-08-21T07:45:55.000Z,58.00
2022-08-21T07:46:52.000Z,57.90
2022-08-21T07:47:52.000Z,58.11
2022-08-21T07:48:53.000Z,58.07
2022-08-21T07:49:52.000Z,58.12
2022-08-21T07:50:52.000Z,57.97
2022-08-21T07:51:53.000Z,57.54
2022-08-21T07:52:52.000Z,57.58
2022-08-21T07:53:54.000Z,57.49
2022-08-21T07:54:52.000Z,57.60
2022-08-21T07:55:56.000Z,57.58
2022-08-21T07:56:52.000Z,57.20
2022-08-21T07:57:52.000Z,56.82
2022-08-21T07:58:52.000Z,56.30
2022-08-21T07:59:52.000Z,56.56
2022-08-21T08:00:52.000Z,56.73
2022-08-21T08:01:52.000Z,57.12
2022-08-21T08:02:54.000Z,57.11
2022-08-21T08:03:52.000Z,57.27
2022-08-21T08:04:52.000Z,57.11
2022-08-21T08:05:52.000Z,57.43
2022-08-21T08:06:52.000Z,57.14
2022-08-21T08:07:53.000Z,56.94
2022-08-21T08:08:52.000Z,55.96
2022-08-21T08:09:52.000Z,56.08
2022-08-21T08:10:55.000Z,55.99
2022-08-21T08:11:52.000Z,55.65
2022-08-21T08:12:54.000Z,55.60
2022-08-21T08:13:52.000Z,55.14
2022-08-21T08:14:52.000Z,55.42
2022-08-21T08:15:52.000Z,55.38
2022-08-21T08:16:52.000Z,55.25
2022-08-21T08:17:55.000Z,55.62
2022-08-21T08:18:54.000Z,54.95
2022-08-21T08:19:52.000Z,55.15
2022-08-21T08:20:52.000Z,55.32
2022-08-21T08:21:52.000Z,55.21
2022-08-21T08:22:53.000Z,54.51
2022-08-21T08:23:52.000Z,54.27
2022-08-21T08:24:53.000Z,54.95
2022-08-21T08:25:52.000Z,53.83
2022-08-21T08:26:53.000Z,53.83
2022-08-21T08:27:52.000Z,53.83
2022-08-21T08:28:52.000Z,53.82
2022-08-21T08:29:52.000Z,53.85
2022-08-21T08:30:52.000Z,53.99
2022-08-21T08:31:52.000Z,54.19
2022-08-21T08:32:52.000Z,54.71
2022-08-21T08:33:52.000Z,54.19
2022-08-21T08:34:52.000Z,54.09
2022-08-21T08:35:53.000Z,53.75
2022-08-21T08:36:52.000Z,53.71
2022-08-21T08:37:52.000Z,53.56
2022-08-21T08:38:52.000Z,54.36
2022-08-21T08:39:53.000Z,54.47
2022-08-21T08:41:08.000Z,54.34
2022-08-21T08:42:01.000Z,53.98
2022-08-21T08:42:52.000Z,53.62
2022-08-21T08:43:58.000Z,53.03
2022-08-21T08:44:59.000Z,52.95
2022-08-21T08:45:56.000Z,53.06
2022-08-21T08:46:53.000Z,53.01
2022-08-21T08:48:06.000Z,52.83
2022-08-21T08:48:57.000Z,52.72
2022-08-21T08:50:03.000Z,52.37
2022-08-21T08:50:55.000Z,51.92
2022-08-21T08:51:59.000Z,52.46
2022-08-21T08:53:01.000Z,52.77
2022-08-21T08:53:59.000Z,52.95
2022-08-21T08:55:15.000Z,52.83
2022-08-21T08:55:52.000Z,52.39
2022-08-21T08:56:55.000Z,51.23
2022-08-21T08:57:54.000Z,51.08
2022-08-21T08:58:58.000Z,50.76
2022-08-21T08:59:58.000Z,51.48
2022-08-21T09:00:53.000Z,51.56
2022-08-21T09:01:52.000Z,51.12
2022-08-21T09:02:54.000Z,50.53
2022-08-21T09:03:52.000Z,50.65
2022-08-21T09:04:53.000Z,50.48
2022-08-21T09:06:07.000Z,50.82
2022-08-21T09:07:15.000Z,51.15
2022-08-21T09:08:11.000Z,51.33
2022-08-21T09:09:25.000Z,50.23
2022-08-21T09:10:25.000Z,50.18
2022-08-21T09:11:00.000Z,50.47
2022-08-21T09:12:02.000Z,49.78
2022-08-21T09:13:17.000Z,50.57
2022-08-21T09:14:03.000Z,50.88
2022-08-21T09:15:03.000Z,49.99
2022-08-21T09:16:03.000Z,49.77
2022-08-21T09:17:26.000Z,49.36
2022-08-21T09:18:07.000Z,49.12
2022-08-21T09:19:03.000Z,49.42
2022-08-21T09:20:15.000Z,49.25
2022-08-21T09:21:16.000Z,49.14
2022-08-21T09:22:02.000Z,49.31
2022-08-21T09:23:03.000Z,49.72
2022-08-21T09:24:13.000Z,49.17
2022-08-21T09:25:16.000Z,49.07
2022-08-21T09:26:03.000Z,49.24
2022-08-21T09:27:02.000Z,48.50
2022-08-21T09:27:53.000Z,48.82
2022-08-21T09:28:57.000Z,48.83
2022-08-21T09:29:54.000Z,48.88
2022-08-21T09:30:55.000Z,48.74
2022-08-21T09:31:53.000Z,48.65
2022-08-21T09:32:53.000Z,48.79
2022-08-21T09:34:03.000Z,48.56
2022-08-21T09:35:03.000Z,48.02
2022-08-21T09:35:55.000Z,48.07
2022-08-21T09:36:53.000Z,47.35
2022-08-21T09:38:02.000Z,47.81
2022-08-21T09:38:54.000Z,47.59
2022-08-21T09:39:53.000Z,47.49
2022-08-21T09:41:02.000Z,46.71
2022-08-21T09:42:00.000Z,47.14
2022-08-21T09:42:56.000Z,47.56
2022-08-21T09:43:53.000Z,47.07
2022-08-21T09:45:03.000Z,46.96
2022-08-21T09:46:06.000Z,45.29
2022-08-21T09:46:52.000Z,46.13
2022-08-21T09:47:53.000Z,46.52
2022-08-21T09:48:55.000Z,46.33
2022-08-21T09:49:53.000Z,46.15
2022-08-21T09:51:04.000Z,46.14
2022-08-21T09:51:54.000Z,45.77
2022-08-21T09:53:00.000Z,46.34
2022-08-21T09:54:14.000Z,46.44
2022-08-21T09:54:55.000Z,45.38
2022-08-21T09:56:01.000Z,46.03
2022-08-21T09:57:10.000Z,45.70
2022-08-21T09:57:52.000Z,45.98
2022-08-21T09:58:52.000Z,45.77
2022-08-21T09:59:53.000Z,45.71
2022-08-21T10:00:58.000Z,45.37
2022-08-21T10:01:53.000Z,45.36
2022-08-21T10:02:53.000Z,45.55
2022-08-21T10:04:02.000Z,45.23
2022-08-21T10:04:59.000Z,44.81
2022-08-21T10:06:03.000Z,44.27
2022-08-21T10:06:52.000Z,44.98
2022-08-21T10:07:52.000Z,44.23
2022-08-21T10:09:02.000Z,44.89
2022-08-21T10:10:08.000Z,44.20
2022-08-21T10:11:03.000Z,43.67
2022-08-21T10:12:02.000Z,44.56
2022-08-21T10:13:03.000Z,44.28
2022-08-21T10:14:16.000Z,43.63
2022-08-21T10:15:05.000Z,43.66
2022-08-21T10:16:16.000Z,43.03
2022-08-21T10:17:05.000Z,43.24
2022-08-21T10:18:09.000Z,43.09
2022-08-21T10:19:06.000Z,42.96
2022-08-21T10:20:03.000Z,43.19
2022-08-21T10:21:13.000Z,43.06
2022-08-21T10:22:03.000Z,42.57
2022-08-21T10:23:13.000Z,42.56
2022-08-21T10:24:04.000Z,41.87
2022-08-21T10:25:03.000Z,42.58
2022-08-21T10:26:05.000Z,42.05
2022-08-21T10:27:03.000Z,41.53
2022-08-21T10:28:16.000Z,41.24
2022-08-21T10:29:06.000Z,41.15
2022-08-21T10:30:13.000Z,41.11
2022-08-21T10:31:12.000Z,41.37
2022-08-21T10:32:16.000Z,41.14
2022-08-21T10:33:07.000Z,41.40
2022-08-21T10:34:13.000Z,41.49
2022-08-21T10:35:10.000Z,41.61
2022-08-21T10:36:12.000Z,41.52
2022-08-21T10:37:10.000Z,42.11
2022-08-21T10:38:03.000Z,41.28
2022-08-21T10:39:13.000Z,41.43
2022-08-21T10:40:03.000Z,41.41
2022-08-21T10:41:08.000Z,41.73
2022-08-21T10:42:13.000Z,42.37
2022-08-21T10:43:15.000Z,41.82
2022-08-21T10:44:03.000Z,41.92
2022-08-21T10:45:15.000Z,41.70
2022-08-21T10:46:03.000Z,40.81
2022-08-21T10:47:03.000Z,40.18
2022-08-21T10:48:05.000Z,40.40
2022-08-21T10:48:58.000Z,40.25
2022-08-21T10:50:03.000Z,40.76
2022-08-21T10:51:03.000Z,40.97
2022-08-21T10:52:15.000Z,40.03
2022-08-21T10:53:04.000Z,40.62
2022-08-21T10:54:12.000Z,40.75
2022-08-21T10:55:02.000Z,40.40
2022-08-21T10:56:05.000Z,40.34
2022-08-21T10:57:01.000Z,40.06
2022-08-21T10:58:00.000Z,39.89
2022-08-21T10:59:25.000Z,40.01
2022-08-21T10:59:59.000Z,40.25
2022-08-21T11:01:02.000Z,39.12
2022-08-21T11:02:02.000Z,39.14
2022-08-21T11:03:13.000Z,39.43
2022-08-21T11:04:07.000Z,38.70
2022-08-21T11:05:02.000Z,38.88
2022-08-21T11:06:05.000Z,38.79
2022-08-21T11:07:03.000Z,39.28
2022-08-21T11:08:03.000Z,39.03
2022-08-21T11:08:58.000Z,38.93
2022-08-21T11:09:57.000Z,38.83
2022-08-21T11:11:05.000Z,39.01
2022-08-21T11:12:03.000Z,39.38
2022-08-21T11:13:01.000Z,39.09
2022-08-21T11:14:02.000Z,38.96
2022-08-21T11:15:00.000Z,39.37
2022-08-21T11:16:05.000Z,38.25
2022-08-21T11:17:12.000Z,37.39
2022-08-21T11:18:16.000Z,37.11
2022-08-21T11:19:02.000Z,36.64
2022-08-21T11:20:02.000Z,36.84
2022-08-21T11:21:03.000Z,37.34
2022-08-21T11:22:00.000Z,37.17
2022-08-21T11:23:04.000Z,37.42
2022-08-21T11:24:02.000Z,36.96
2022-08-21T11:25:01.000Z,37.22
2022-08-21T11:26:00.000Z,37.05
2022-08-21T11:27:04.000Z,37.02
2022-08-21T11:28:10.000Z,37.04
2022-08-21T11:29:05.000Z,37.44
2022-08-21T11:29:56.000Z,37.05
2022-08-21T11:31:06.000Z,37.10
2022-08-21T11:32:02.000Z,37.33
2022-08-21T11:33:03.000Z,37.15
2022-08-21T11:34:16.000Z,37.33
2022-08-21T11:35:07.000Z,37.46
2022-08-21T11:36:02.000Z,37.25
2022-08-21T11:37:17.000Z,37.55
2022-08-21T11:38:03.000Z,36.53
2022-08-21T11:39:01.000Z,36.23
2022-08-21T11:40:03.000Z,36.57
2022-08-21T11:41:15.000Z,36.85
2022-08-21T11:42:15.000Z,37.28
2022-08-21T11:43:15.000Z,36.02
2022-08-21T11:44:05.000Z,36.21
2022-08-21T11:45:10.000Z,35.96
2022-08-21T11:46:09.000Z,34.91
2022-08-21T11:47:04.000Z,35.32
2022-08-21T11:48:07.000Z,35.30
2022-08-21T11:49:02.000Z,34.73
2022-08-21T11:50:05.000Z,35.00
2022-08-21T11:50:54.000Z,35.01
2022-08-21T11:52:05.000Z,35.83
2022-08-21T11:53:12.000Z,35.59
2022-08-21T11:54:13.000Z,35.75
2022-08-21T11:55:03.000Z,35.43
2022-08-21T11:56:04.000Z,35.45
2022-08-21T11:57:02.000Z,35.55
2022-08-21T11:58:03.000Z,35.81
2022-08-21T11:58:56.000Z,34.48
2022-08-21T11:59:59.000Z,34.81
2022-08-21T12:01:05.000Z,35.10
2022-08-21T12:01:53.000Z,34.18
2022-08-21T12:02:55.000Z,34.69
2022-08-21T12:04:00.000Z,34.25
2022-08-21T12:04:59.000Z,34.05
2022-08-21T12:05:59.000Z,34.09
2022-08-21T12:06:52.000Z,34.52
2022-08-21T12:08:02.000Z,34.81
2022-08-21T12:08:59.000Z,34.67
2022-08-21T12:09:55.000Z,34.74
2022-08-21T12:11:02.000Z,34.43
2022-08-21T12:12:09.000Z,35.23
2022-08-21T12:12:52.000Z,35.70
2022-08-21T12:13:59.000Z,34.81
2022-08-21T12:15:08.000Z,34.72
2022-08-21T12:16:03.000Z,35.20
2022-08-21T12:17:04.000Z,35.21
2022-08-21T12:18:00.000Z,34.69
2022-08-21T12:19:14.000Z,34.75
2022-08-21T12:19:58.000Z,34.91
2022-08-21T12:21:15.000Z,34.73
2022-08-21T12:22:02.000Z,34.31
2022-08-21T12:23:03.000Z,34.67
2022-08-21T12:24:02.000Z,33.40
2022-08-21T12:25:06.000Z,33.68
2022-08-21T12:26:03.000Z,33.58
2022-08-21T12:27:12.000Z,33.61
2022-08-21T12:28:05.000Z,32.97
2022-08-21T12:29:10.000Z,32.70
2022-08-21T12:29:58.000Z,33.33
2022-08-21T12:30:53.000Z,34.09
2022-08-21T12:32:18.000Z,33.60
2022-08-21T12:32:59.000Z,33.59
2022-08-21T12:34:03.000Z,33.42
2022-08-21T12:35:05.000Z,33.48
2022-08-21T12:36:04.000Z,33.65
2022-08-21T12:36:59.000Z,33.54
2022-08-21T12:38:02.000Z,32.44
2022-08-21T12:39:12.000Z,32.18
2022-08-21T12:39:57.000Z,32.66
2022-08-21T12:41:03.000Z,33.38
2022-08-21T12:42:25.000Z,31.65
2022-08-21T12:42:56.000Z,31.23
2022-08-21T12:44:01.000Z,32.59
2022-08-21T12:45:01.000Z,31.54
2022-08-21T12:45:52.000Z,31.47
2022-08-21T12:46:59.000Z,32.45
2022-08-21T12:48:01.000Z,31.84
2022-08-21T12:48:59.000Z,30.08
2022-08-21T12:50:01.000Z,30.34
2022-08-21T12:50:55.000Z,31.23
2022-08-21T12:52:00.000Z,30.53
2022-08-21T12:53:02.000Z,30.85